createdAt,value
2017-09-08T00:01:52.680Z,20.80
2017-09-08T00:04:20.223Z,20.60
2017-09-08T00:06:47.817Z,20.70
2017-09-08T00:09:15.404Z,20.80
2017-09-08T00:11:43.038Z,20.70
2017-09-08T00:14:10.703Z,20.70
2017-09-08T00:16:39.581Z,20.80
2017-09-08T00:19:07.254Z,21.10
2017-09-08T00:21:36.098Z,21.40
2017-09-08T00:24:05.088Z,22.00
2017-09-08T00:26:35.229Z,21.80
2017-09-08T00:29:03.936Z,21.80
2017-09-08T00:31:31.772Z,21.20
2017-09-08T00:34:00.294Z,21.10
2017-09-08T00:36:29.309Z,21.10
2017-09-08T00:38:58.008Z,21.00
2017-09-08T00:41:28.204Z,20.70
2017-09-08T00:43:56.631Z,20.70
2017-09-08T00:46:24.894Z,20.70
2017-09-08T00:48:52.426Z,20.70
2017-09-08T00:51:19.925Z,20.60
2017-09-08T00:53:48.222Z,20.50
2017-09-08T00:56:15.710Z,20.40
2017-09-08T00:58:43.225Z,20.50
2017-09-08T01:01:10.717Z,20.60
2017-09-08T01:03:38.234Z,20.50
2017-09-08T01:06:05.720Z,20.50
2017-09-08T01:08:33.210Z,20.50
2017-09-08T01:11:00.682Z,20.70
2017-09-08T01:13:28.164Z,20.60
2017-09-08T01:15:55.647Z,20.50
2017-09-08T01:18:23.142Z,20.40
2017-09-08T01:20:50.622Z,20.50
2017-09-08T01:23:18.093Z,20.40
2017-09-08T01:25:45.583Z,20.50
2017-09-08T01:28:13.822Z,20.30
2017-09-08T01:30:41.327Z,20.20
2017-09-08T01:33:09.621Z,20.20
2017-09-08T01:35:37.113Z,20.20
2017-09-08T01:38:04.618Z,20.20
2017-09-08T01:40:32.886Z,20.10
2017-09-08T01:43:01.147Z,20.10
2017-09-08T01:45:28.635Z,20.00
2017-09-08T01:47:57.000Z,20.00
2017-09-08T01:50:25.254Z,20.10
2017-09-08T01:52:53.223Z,20.00
2017-09-08T01:55:20.701Z,20.10
2017-09-08T01:57:49.007Z,20.20
2017-09-08T02:00:16.561Z,20.20
2017-09-08T02:02:44.046Z,20.10
2017-09-08T02:05:11.541Z,20.10
2017-09-08T02:07:39.040Z,20.20
2017-09-08T02:10:06.621Z,20.10
2017-09-08T02:12:34.122Z,20.00
2017-09-08T02:15:01.615Z,20.00
2017-09-08T02:17:29.263Z,19.90
2017-09-08T02:19:57.626Z,19.90
2017-09-08T02:22:25.284Z,19.80
2017-09-08T02:24:53.425Z,19.90
2017-09-08T02:27:21.063Z,19.70
2017-09-08T02:29:48.758Z,19.80
2017-09-08T02:32:17.343Z,19.90
2017-09-08T02:34:44.824Z,19.90
2017-09-08T02:37:12.310Z,19.90
2017-09-08T02:39:40.564Z,19.90
2017-09-08T02:42:08.056Z,19.80
2017-09-08T02:44:36.306Z,19.70
2017-09-08T02:47:04.563Z,19.60
2017-09-08T02:49:32.180Z,19.60
2017-09-08T02:51:59.667Z,19.60
2017-09-08T02:54:27.149Z,19.60
2017-09-08T02:56:54.635Z,19.60
2017-09-08T02:59:22.900Z,19.40
2017-09-08T03:01:51.199Z,19.50
2017-09-08T03:04:19.451Z,19.40
2017-09-08T03:06:46.934Z,19.30
2017-09-08T03:09:15.189Z,19.30
2017-09-08T03:11:42.682Z,19.30
2017-09-08T03:14:10.169Z,19.30
2017-09-08T03:16:37.656Z,19.30
2017-09-08T03:19:05.138Z,19.20
2017-09-08T03:21:33.403Z,19.30
2017-09-08T03:24:00.890Z,19.30
2017-09-08T03:26:28.374Z,19.40
2017-09-08T03:28:55.901Z,19.50
2017-09-08T03:31:24.182Z,19.40
2017-09-08T03:33:52.434Z,19.40
2017-09-08T03:36:19.922Z,19.40
2017-09-08T03:38:47.404Z,19.40
2017-09-08T03:41:14.898Z,19.30
2017-09-08T03:43:42.390Z,19.20
2017-09-08T03:46:10.702Z,19.10
2017-09-08T03:48:38.193Z,19.00
2017-09-08T03:51:05.685Z,19.10
2017-09-08T03:53:33.172Z,19.20
2017-09-08T03:56:00.660Z,19.20
2017-09-08T03:58:28.152Z,19.30
2017-09-08T04:00:56.415Z,19.30
2017-09-08T04:03:23.901Z,19.30
2017-09-08T04:05:52.167Z,19.30
2017-09-08T04:08:20.427Z,19.30
2017-09-08T04:10:47.914Z,19.20
2017-09-08T04:13:16.282Z,19.20
2017-09-08T04:15:44.547Z,19.30
2017-09-08T04:18:12.038Z,19.30
2017-09-08T04:20:39.530Z,19.40
2017-09-08T04:23:07.005Z,19.50
2017-09-08T04:25:34.500Z,19.40
2017-09-08T04:28:02.748Z,19.40
2017-09-08T04:30:30.243Z,19.40
2017-09-08T04:32:58.488Z,19.40
2017-09-08T04:35:25.979Z,19.30
2017-09-08T04:37:54.245Z,19.30
2017-09-08T04:40:22.503Z,19.30
2017-09-08T04:42:49.989Z,19.30
2017-09-08T04:45:18.248Z,19.40
2017-09-08T04:47:45.735Z,19.40
2017-09-08T04:50:13.973Z,19.40
2017-09-08T04:52:41.454Z,19.40
2017-09-08T04:55:09.719Z,19.40
2017-09-08T04:57:37.203Z,19.40
2017-09-08T05:00:04.704Z,19.40
2017-09-08T05:02:32.186Z,19.30
2017-09-08T05:04:59.675Z,19.40
2017-09-08T05:07:27.167Z,19.30
2017-09-08T05:09:54.668Z,19.40
2017-09-08T05:12:22.142Z,19.40
2017-09-08T05:14:50.396Z,19.40
2017-09-08T05:17:17.881Z,19.30
2017-09-08T05:19:46.125Z,19.60
2017-09-08T05:22:13.610Z,19.50
2017-09-08T05:24:41.857Z,19.50
2017-09-08T05:27:09.352Z,19.50
2017-09-08T05:29:37.603Z,19.40
2017-09-08T05:32:05.082Z,19.40
2017-09-08T05:34:33.337Z,19.60
2017-09-08T05:37:00.836Z,19.50
2017-09-08T05:39:28.322Z,19.50
2017-09-08T05:41:55.797Z,19.50
2017-09-08T05:44:23.287Z,19.40
2017-09-08T05:46:50.774Z,19.40
2017-09-08T05:49:18.256Z,19.40
2017-09-08T05:51:45.742Z,19.30
2017-09-08T05:54:13.240Z,19.30
2017-09-08T05:56:41.481Z,19.20
2017-09-08T05:59:08.966Z,19.10
2017-09-08T06:01:37.229Z,19.10
2017-09-08T06:04:04.706Z,19.10
2017-09-08T06:06:32.984Z,19.20
2017-09-08T06:09:01.246Z,19.40
2017-09-08T06:11:28.741Z,19.30
2017-09-08T06:13:56.994Z,19.40
2017-09-08T06:16:24.487Z,19.30
2017-09-08T06:18:52.027Z,19.30
2017-09-08T06:21:20.283Z,19.40
2017-09-08T06:23:47.771Z,19.40
2017-09-08T06:26:15.262Z,19.40
2017-09-08T06:28:42.737Z,19.40
2017-09-08T06:31:10.231Z,19.50
2017-09-08T06:33:38.473Z,19.60
2017-09-08T06:36:05.959Z,19.60
2017-09-08T06:38:33.448Z,19.90
2017-09-08T06:41:00.922Z,19.90
2017-09-08T06:43:28.411Z,19.80
2017-09-08T06:45:55.898Z,20.00
2017-09-08T06:48:24.219Z,19.90
2017-09-08T06:50:51.702Z,19.90
2017-09-08T06:53:19.181Z,20.10
2017-09-08T06:55:46.675Z,20.10
2017-09-08T06:58:14.167Z,20.00
2017-09-08T07:00:41.648Z,20.00
2017-09-08T07:03:09.130Z,20.20
2017-09-08T07:05:37.380Z,20.10
2017-09-08T07:08:04.874Z,20.00
2017-09-08T07:10:33.117Z,20.50
2017-09-08T07:13:00.600Z,20.50
2017-09-08T07:15:28.852Z,20.40
2017-09-08T07:17:56.337Z,20.30
2017-09-08T07:20:23.818Z,20.30
2017-09-08T07:22:51.328Z,20.50
2017-09-08T07:25:18.814Z,20.50
2017-09-08T07:27:46.302Z,20.70
2017-09-08T07:30:13.786Z,21.00
2017-09-08T07:32:41.270Z,20.70
2017-09-08T07:35:08.764Z,20.40
2017-09-08T07:37:37.019Z,20.40
2017-09-08T07:40:05.274Z,20.20
2017-09-08T07:42:32.763Z,20.20
2017-09-08T07:45:01.023Z,20.40
2017-09-08T07:47:29.278Z,20.30
2017-09-08T07:49:56.769Z,20.20
2017-09-08T07:52:24.250Z,20.40
2017-09-08T07:54:51.735Z,20.30
2017-09-08T07:57:19.222Z,20.20
2017-09-08T07:59:46.710Z,20.30
2017-09-08T08:02:14.972Z,20.40
2017-09-08T08:04:42.464Z,20.40
2017-09-08T08:07:09.951Z,20.50
2017-09-08T08:09:37.434Z,20.50
2017-09-08T08:12:04.927Z,20.70
2017-09-08T08:14:33.187Z,20.80
2017-09-08T08:17:02.179Z,20.60
2017-09-08T08:19:29.667Z,20.50
2017-09-08T08:21:57.927Z,20.70
2017-09-08T08:24:26.185Z,21.60
2017-09-08T08:26:53.669Z,21.50
2017-09-08T08:29:21.921Z,20.80
2017-09-08T08:31:49.416Z,20.80
2017-09-08T08:34:17.682Z,20.90
2017-09-08T08:36:45.175Z,20.90
2017-09-08T08:39:12.659Z,20.70
2017-09-08T08:41:40.151Z,21.30
2017-09-08T08:44:08.410Z,21.00
2017-09-08T08:46:35.889Z,21.00
2017-09-08T08:49:04.150Z,20.40
2017-09-08T08:51:31.643Z,20.40
2017-09-08T08:53:59.126Z,20.60
2017-09-08T08:56:26.612Z,20.90
2017-09-08T08:58:54.110Z,21.00
2017-09-08T09:01:22.358Z,21.30
2017-09-08T09:03:49.837Z,21.20
2017-09-08T09:06:18.099Z,21.30
2017-09-08T09:08:45.588Z,21.20
2017-09-08T09:11:13.833Z,21.40
2017-09-08T09:13:41.319Z,21.40
2017-09-08T09:16:09.569Z,21.60
2017-09-08T09:18:37.058Z,21.60
2017-09-08T09:21:04.546Z,21.70
2017-09-08T09:23:32.034Z,21.50
2017-09-08T09:25:59.527Z,21.50
2017-09-08T09:28:27.783Z,21.40
2017-09-08T09:30:55.277Z,21.40
2017-09-08T09:33:23.540Z,21.70
2017-09-08T09:35:51.785Z,21.60
2017-09-08T09:38:19.275Z,21.60
2017-09-08T09:40:47.536Z,21.40
2017-09-08T09:43:15.025Z,21.40
2017-09-08T09:45:43.278Z,21.80
2017-09-08T09:48:11.532Z,21.80
2017-09-08T09:50:39.024Z,21.80
2017-09-08T09:53:07.283Z,21.50
2017-09-08T09:55:35.539Z,21.50
2017-09-08T09:58:03.029Z,21.40
2017-09-08T10:00:31.290Z,21.90
2017-09-08T10:02:58.814Z,21.80
2017-09-08T10:05:26.309Z,21.90
2017-09-08T10:07:55.056Z,21.90
2017-09-08T10:10:22.800Z,21.80
2017-09-08T10:12:51.790Z,21.80
2017-09-08T10:15:20.140Z,21.80
2017-09-08T10:17:49.001Z,21.90
2017-09-08T10:20:16.946Z,21.90
2017-09-08T10:22:45.386Z,22.10
2017-09-08T10:25:14.024Z,22.10
2017-09-08T10:27:41.779Z,22.00
2017-09-08T10:30:10.957Z,22.20
2017-09-08T10:32:40.546Z,22.10
2017-09-08T10:35:10.128Z,22.00
2017-09-08T10:37:37.810Z,22.00
2017-09-08T10:40:07.391Z,21.90
2017-09-08T10:42:36.065Z,22.10
2017-09-08T10:45:04.233Z,22.30
2017-09-08T10:47:32.211Z,22.30
2017-09-08T10:50:00.281Z,22.30
2017-09-08T10:52:29.587Z,22.20
2017-09-08T10:54:57.463Z,22.10
2017-09-08T10:57:25.425Z,22.20
2017-09-08T10:59:53.737Z,22.10
2017-09-08T11:02:22.081Z,22.10
2017-09-08T11:04:49.846Z,22.30
2017-09-08T11:07:18.332Z,22.40
2017-09-08T11:09:45.992Z,22.40
2017-09-08T11:12:14.378Z,22.40
2017-09-08T11:14:44.409Z,22.30
2017-09-08T11:17:12.212Z,22.40
2017-09-08T11:19:41.270Z,22.60
2017-09-08T11:22:08.907Z,22.60
2017-09-08T11:24:37.400Z,22.60
2017-09-08T11:27:05.082Z,22.60
2017-09-08T11:29:32.794Z,22.70
2017-09-08T11:32:02.167Z,22.70
2017-09-08T11:34:35.731Z,22.60
2017-09-08T11:37:09.464Z,22.70
2017-09-08T11:39:38.852Z,22.70
2017-09-08T11:42:07.995Z,22.70
2017-09-08T11:44:36.247Z,22.80
2017-09-08T11:47:03.738Z,22.70
2017-09-08T11:49:32.010Z,22.80
2017-09-08T11:52:00.261Z,22.90
2017-09-08T11:54:27.755Z,22.80
2017-09-08T11:56:56.005Z,23.00
2017-09-08T11:59:23.487Z,22.90
2017-09-08T12:01:51.800Z,23.00
2017-09-08T12:04:19.273Z,22.90
2017-09-08T12:06:46.757Z,22.90
2017-09-08T12:09:14.243Z,23.00
2017-09-08T12:11:42.494Z,23.10
2017-09-08T12:14:09.970Z,23.10
2017-09-08T12:16:39.298Z,23.20
2017-09-08T12:19:06.787Z,23.10
2017-09-08T12:21:34.278Z,23.20
2017-09-08T12:24:01.757Z,23.20
2017-09-08T12:26:30.014Z,23.10
2017-09-08T12:28:57.495Z,23.10
2017-09-08T12:31:25.736Z,23.20
2017-09-08T12:33:53.227Z,23.10
2017-09-08T12:36:21.540Z,23.20
2017-09-08T12:38:49.026Z,23.20
2017-09-08T12:41:16.501Z,23.20
2017-09-08T12:43:43.987Z,23.30
2017-09-08T12:46:12.884Z,23.20
2017-09-08T12:48:42.210Z,23.20
2017-09-08T12:51:09.979Z,23.10
2017-09-08T12:53:37.957Z,23.20
2017-09-08T12:56:05.657Z,23.20
2017-09-08T12:58:34.812Z,23.20
2017-09-08T13:01:03.219Z,23.20
2017-09-08T13:03:30.908Z,23.20
2017-09-08T13:05:59.171Z,23.20
2017-09-08T13:08:27.418Z,23.20
2017-09-08T13:10:54.901Z,23.20
2017-09-08T13:13:22.386Z,23.30
2017-09-08T13:15:49.857Z,23.20
2017-09-08T13:18:18.123Z,23.30
2017-09-08T13:20:46.386Z,23.30
2017-09-08T13:23:13.872Z,23.30
2017-09-08T13:25:41.352Z,23.40
2017-09-08T13:28:08.851Z,23.40
2017-09-08T13:30:36.330Z,23.30
2017-09-08T13:33:04.590Z,23.40
2017-09-08T13:35:32.081Z,23.30
2017-09-08T13:38:00.336Z,23.40
2017-09-08T13:40:28.590Z,23.40
2017-09-08T13:42:56.095Z,23.30
2017-09-08T13:45:23.583Z,23.40
2017-09-08T13:47:51.077Z,23.40
2017-09-08T13:50:19.322Z,23.40
2017-09-08T13:52:46.798Z,23.40
2017-09-08T13:55:14.283Z,23.40
2017-09-08T13:57:41.774Z,23.50
2017-09-08T14:00:09.251Z,23.60
2017-09-08T14:02:36.746Z,23.60
2017-09-08T14:05:04.229Z,23.50
2017-09-08T14:07:32.479Z,23.60
2017-09-08T14:09:59.958Z,23.50
2017-09-08T14:12:28.207Z,23.50
2017-09-08T14:14:55.690Z,23.50
2017-09-08T14:17:23.167Z,23.50
2017-09-08T14:19:51.418Z,23.70
2017-09-08T14:22:18.896Z,23.60
2017-09-08T14:24:46.401Z,23.70
2017-09-08T14:27:13.886Z,23.70
2017-09-08T14:29:41.386Z,23.60
2017-09-08T14:32:08.866Z,23.60
2017-09-08T14:34:36.406Z,23.70
2017-09-08T14:37:04.663Z,23.70
2017-09-08T14:39:32.925Z,23.80
2017-09-08T14:42:00.413Z,23.80
2017-09-08T14:44:28.661Z,23.80
2017-09-08T14:46:56.155Z,23.70
2017-09-08T14:49:23.636Z,23.70
2017-09-08T14:51:51.101Z,23.70
2017-09-08T14:54:18.594Z,23.70
2017-09-08T14:56:46.077Z,23.70
2017-09-08T14:59:14.332Z,23.70
2017-09-08T15:01:41.819Z,23.70
2017-09-08T15:04:10.075Z,23.70
2017-09-08T15:06:37.563Z,23.70
2017-09-08T15:09:05.056Z,23.70
2017-09-08T15:11:32.528Z,23.70
2017-09-08T15:14:00.010Z,23.70
2017-09-08T15:16:27.523Z,23.80
2017-09-08T15:18:55.020Z,23.70
2017-09-08T15:21:23.270Z,23.70
2017-09-08T15:23:50.741Z,23.70
2017-09-08T15:26:18.218Z,23.80
2017-09-08T15:28:45.696Z,23.80
2017-09-08T15:31:13.936Z,23.80
2017-09-08T15:33:42.680Z,23.80
2017-09-08T15:36:10.166Z,23.80
2017-09-08T15:38:37.637Z,23.80
2017-09-08T15:41:05.122Z,23.80
2017-09-08T15:43:32.599Z,23.70
2017-09-08T15:46:00.086Z,23.70
2017-09-08T15:48:27.566Z,23.70
2017-09-08T15:50:55.042Z,23.80
2017-09-08T15:53:22.529Z,23.80
2017-09-08T15:55:50.021Z,23.80
2017-09-08T15:58:17.503Z,23.80
2017-09-08T16:00:44.986Z,23.80
2017-09-08T16:03:12.462Z,23.70
2017-09-08T16:05:39.942Z,23.80
2017-09-08T16:08:07.422Z,23.80
2017-09-08T16:10:34.919Z,23.80
2017-09-08T16:13:03.166Z,23.80
2017-09-08T16:15:30.645Z,23.70
2017-09-08T16:17:58.114Z,23.80
2017-09-08T16:20:25.603Z,23.80
2017-09-08T16:22:53.073Z,23.80
2017-09-08T16:25:20.652Z,23.80
2017-09-08T16:27:48.149Z,23.90
2017-09-08T16:30:15.639Z,23.90
2017-09-08T16:32:44.871Z,24.00
2017-09-08T16:35:12.366Z,23.90
2017-09-08T16:37:39.843Z,23.90
2017-09-08T16:40:08.093Z,24.00
2017-09-08T16:42:35.588Z,23.90
2017-09-08T16:45:03.850Z,24.00
2017-09-08T16:47:31.343Z,24.00
2017-09-08T16:49:59.061Z,24.00
2017-09-08T16:52:26.553Z,23.90
2017-09-08T16:54:54.862Z,24.00
2017-09-08T16:57:22.364Z,23.90
2017-09-08T16:59:49.866Z,24.00
2017-09-08T17:02:17.354Z,24.00
2017-09-08T17:04:44.859Z,24.00
2017-09-08T17:07:13.119Z,23.90
2017-09-08T17:09:40.614Z,23.90
2017-09-08T17:12:08.104Z,23.90
2017-09-08T17:14:35.595Z,24.00
2017-09-08T17:17:03.111Z,23.90
2017-09-08T17:19:30.597Z,23.90
2017-09-08T17:21:58.082Z,23.90
2017-09-08T17:24:25.566Z,23.90
2017-09-08T17:26:53.818Z,23.90
2017-09-08T17:29:21.315Z,23.80
2017-09-08T17:31:48.812Z,23.90
2017-09-08T17:34:16.293Z,23.90
2017-09-08T17:36:43.853Z,23.90
2017-09-08T17:39:11.348Z,23.90
2017-09-08T17:41:38.847Z,23.90
2017-09-08T17:44:06.362Z,23.90
2017-09-08T17:46:33.861Z,23.90
2017-09-08T17:49:01.355Z,23.80
2017-09-08T17:51:29.619Z,23.60
2017-09-08T17:53:57.156Z,23.60
2017-09-08T17:56:24.661Z,23.60
2017-09-08T17:58:52.919Z,23.60
2017-09-08T18:01:20.406Z,23.60
2017-09-08T18:03:48.664Z,23.50
2017-09-08T18:06:16.932Z,23.50
2017-09-08T18:08:44.783Z,23.50
2017-09-08T18:11:13.013Z,23.50
2017-09-08T18:13:42.587Z,23.50
2017-09-08T18:16:10.086Z,23.50
2017-09-08T18:18:37.589Z,23.50
2017-09-08T18:21:05.086Z,23.50
2017-09-08T18:23:33.335Z,23.50
2017-09-08T18:26:00.830Z,23.50
2017-09-08T18:28:28.331Z,23.50
2017-09-08T18:30:55.815Z,23.50
2017-09-08T18:33:23.743Z,23.50
2017-09-08T18:35:51.260Z,23.40
2017-09-08T18:38:19.534Z,23.40
2017-09-08T18:40:47.792Z,23.40
2017-09-08T18:43:16.923Z,23.30
2017-09-08T18:45:49.729Z,23.40
2017-09-08T18:48:20.243Z,23.30
2017-09-08T18:50:48.607Z,23.40
2017-09-08T18:53:16.999Z,23.30
2017-09-08T18:55:47.106Z,23.30
2017-09-08T18:58:16.682Z,23.30
2017-09-08T19:00:44.368Z,23.20
2017-09-08T19:03:12.633Z,23.20
2017-09-08T19:05:40.127Z,23.20
2017-09-08T19:08:08.443Z,23.20
2017-09-08T19:10:35.939Z,23.10
2017-09-08T19:13:04.208Z,23.10
2017-09-08T19:15:31.694Z,23.10
2017-09-08T19:17:59.943Z,23.10
2017-09-08T19:20:27.465Z,23.00
2017-09-08T19:22:54.950Z,23.00
2017-09-08T19:25:22.435Z,23.10
2017-09-08T19:27:51.777Z,23.00
2017-09-08T19:30:19.277Z,22.90
2017-09-08T19:32:47.048Z,23.00
2017-09-08T19:35:15.529Z,23.00
2017-09-08T19:37:44.495Z,23.00
2017-09-08T19:40:11.985Z,22.90
2017-09-08T19:42:39.474Z,22.90
2017-09-08T19:45:08.458Z,23.00
2017-09-08T19:47:38.891Z,22.90
2017-09-08T19:50:07.225Z,22.90
2017-09-08T19:52:39.154Z,22.90
2017-09-08T19:55:06.638Z,22.90
2017-09-08T19:57:48.398Z,22.80
2017-09-08T20:00:15.895Z,22.80
2017-09-08T20:02:43.617Z,22.80
2017-09-08T20:05:11.104Z,22.70
2017-09-08T20:07:38.605Z,22.70
2017-09-08T20:10:06.098Z,22.70
2017-09-08T20:12:33.596Z,22.70
2017-09-08T20:15:01.071Z,22.70
2017-09-08T20:17:28.564Z,22.60
2017-09-08T20:19:56.850Z,22.70
2017-09-08T20:22:24.355Z,22.70
2017-09-08T20:24:51.851Z,22.70
2017-09-08T20:27:20.110Z,22.70
2017-09-08T20:29:47.604Z,22.60
2017-09-08T20:32:15.090Z,22.70
2017-09-08T20:34:42.899Z,22.70
2017-09-08T20:37:11.648Z,22.70
2017-09-08T20:39:39.722Z,22.70
2017-09-08T20:42:08.161Z,22.60
2017-09-08T20:44:36.511Z,22.50
2017-09-08T20:47:04.749Z,22.50
2017-09-08T20:49:33.142Z,22.50
2017-09-08T20:52:01.287Z,22.50
2017-09-08T20:54:29.992Z,22.50
2017-09-08T20:56:58.678Z,22.40
2017-09-08T20:59:27.516Z,22.30
2017-09-08T21:01:56.236Z,22.30
2017-09-08T21:04:24.648Z,22.20
2017-09-08T21:06:52.608Z,22.20
2017-09-08T21:09:20.894Z,22.20
2017-09-08T21:11:49.777Z,22.20
2017-09-08T21:14:18.669Z,22.10
2017-09-08T21:16:47.397Z,22.20
2017-09-08T21:19:21.586Z,22.10
2017-09-08T21:21:50.029Z,22.30
2017-09-08T21:24:19.262Z,22.30
2017-09-08T21:26:47.780Z,22.30
2017-09-08T21:29:16.037Z,22.30
2017-09-08T21:31:43.516Z,22.20
2017-09-08T21:34:11.003Z,22.30
2017-09-08T21:36:42.184Z,22.20
2017-09-08T21:39:09.662Z,22.20
2017-09-08T21:41:37.175Z,22.20
2017-09-08T21:44:04.671Z,22.30
2017-09-08T21:46:32.161Z,22.20
2017-09-08T21:48:59.640Z,22.30
2017-09-08T21:51:27.891Z,22.20
2017-09-08T21:53:56.147Z,22.20
2017-09-08T21:56:23.622Z,22.10
2017-09-08T21:58:51.102Z,22.20
2017-09-08T22:01:19.421Z,22.20
2017-09-08T22:03:46.898Z,22.10
2017-09-08T22:06:14.370Z,22.20
2017-09-08T22:08:41.842Z,22.10
2017-09-08T22:11:09.323Z,22.10
2017-09-08T22:13:37.580Z,22.10
2017-09-08T22:16:05.056Z,22.10
2017-09-08T22:18:33.305Z,22.10
2017-09-08T22:21:00.782Z,22.10
2017-09-08T22:23:29.029Z,22.00
2017-09-08T22:25:56.525Z,21.90
2017-09-08T22:28:24.764Z,22.00
2017-09-08T22:30:52.256Z,21.90
2017-09-08T22:33:20.533Z,22.00
2017-09-08T22:35:47.997Z,22.00
2017-09-08T22:38:16.242Z,22.00
2017-09-08T22:40:43.735Z,22.00
2017-09-08T22:43:11.988Z,21.90
2017-09-08T22:45:40.255Z,22.00
2017-09-08T22:48:07.738Z,21.90
2017-09-08T22:50:35.981Z,21.90
2017-09-08T22:53:03.461Z,21.90
2017-09-08T22:55:30.946Z,21.80
2017-09-08T22:57:59.203Z,21.70
2017-09-08T23:00:26.696Z,21.60
2017-09-08T23:02:54.183Z,21.70
2017-09-08T23:05:21.666Z,21.70
2017-09-08T23:07:49.141Z,21.70
2017-09-08T23:10:16.619Z,21.70
2017-09-08T23:12:44.102Z,21.70
2017-09-08T23:15:11.588Z,21.70
2017-09-08T23:17:39.083Z,21.70
2017-09-08T23:20:07.324Z,21.70
2017-09-08T23:22:34.814Z,21.70
2017-09-08T23:25:02.393Z,21.70
2017-09-08T23:27:30.644Z,21.80
2017-09-08T23:29:58.114Z,21.70
2017-09-08T23:32:26.368Z,21.60
2017-09-08T23:34:53.852Z,21.60
2017-09-08T23:37:22.114Z,21.60
2017-09-08T23:39:50.364Z,21.70
2017-09-08T23:42:17.852Z,21.60
2017-09-08T23:44:45.335Z,21.50
2017-09-08T23:47:13.575Z,21.50
2017-09-08T23:49:46.091Z,21.50
2017-09-08T23:52:14.346Z,21.50
2017-09-08T23:54:41.830Z,21.40
2017-09-08T23:57:09.309Z,21.50
2017-09-08T23:59:36.842Z,21.50
